Time;durP1;ratioP1;P1;durP2;ratioP2;P2;SDS_P1;SDS_P2;PMS_P1;PMS_P2;Temp;Humidity;BMP_temperature;BMP_pressure;BME280_temperature;BME280_humidity;BME280_pressure;Samples;Min_cycle;Max_cycle;Signal;HPM_P1;HPM_P2
2021/11/23 05:00:29;;;;;;;14.40;12.97;;;1.40;99.90;;;;;;5990142;23;20404;-69
2021/11/23 05:02:56;;;;;;;14.00;12.80;;;1.40;99.90;;;;;;5031536;28;20444;-69
2021/11/23 05:05:24;;;;;;;14.70;13.40;;;1.40;99.90;;;;;;5038239;28;20433;-69
2021/11/23 05:07:50;;;;;;;14.90;13.50;;;1.30;99.90;;;;;;5018284;28;20457;-69
2021/11/23 05:10:17;;;;;;;15.13;13.60;;;1.30;99.90;;;;;;5017856;28;20451;-69
2021/11/23 05:12:44;;;;;;;15.57;14.07;;;1.20;99.90;;;;;;5032252;28;20430;-69
2021/11/23 05:15:11;;;;;;;16.13;14.50;;;1.20;99.90;;;;;;5036891;28;20468;-70
2021/11/23 05:17:39;;;;;;;15.53;13.93;;;1.10;99.90;;;;;;5031285;28;20488;-69
2021/11/23 05:20:08;;;;;;;15.33;14.03;;;1.10;99.90;;;;;;5032315;28;20481;-70
2021/11/23 05:22:35;;;;;;;15.90;14.03;;;1.10;99.90;;;;;;5028132;28;20457;-68
2021/11/23 05:25:02;;;;;;;15.83;14.30;;;1.10;99.90;;;;;;5018784;28;20453;-69
2021/11/23 05:27:28;;;;;;;14.73;13.33;;;1.10;99.90;;;;;;5017785;28;20457;-68
2021/11/23 05:29:55;;;;;;;14.40;13.10;;;1.10;99.90;;;;;;5017451;28;20476;-68
2021/11/23 05:32:22;;;;;;;14.33;13.03;;;1.20;99.90;;;;;;5029469;28;20563;-69
2021/11/23 05:34:50;;;;;;;15.43;13.00;;;1.20;99.90;;;;;;5031593;28;20453;-70
2021/11/23 05:37:16;;;;;;;15.13;13.77;;;1.10;99.90;;;;;;5024307;28;20481;-69
2021/11/23 05:39:43;;;;;;;13.70;12.50;;;1.20;99.90;;;;;;5026614;28;20474;-69
2021/11/23 05:42:10;;;;;;;14.03;12.83;;;1.20;99.90;;;;;;5028979;28;20854;-69
2021/11/23 05:44:37;;;;;;;16.00;14.60;;;1.10;99.90;;;;;;5019270;28;20600;-69
2021/11/23 05:47:04;;;;;;;15.33;13.50;;;1.10;99.90;;;;;;5017183;28;20461;-69
2021/11/23 05:49:32;;;;;;;15.40;13.90;;;1.10;99.90;;;;;;5017013;28;20624;-69
2021/11/23 05:52:00;;;;;;;13.63;12.43;;;1.10;99.90;;;;;;5028500;28;20486;-70
2021/11/23 05:54:27;;;;;;;15.07;13.70;;;1.00;99.90;;;;;;5026929;28;20499;-70
2021/11/23 05:56:53;;;;;;;14.60;13.20;;;1.00;99.90;;;;;;5036691;28;20479;-69
2021/11/23 05:59:20;;;;;;;17.57;15.90;;;1.00;99.90;;;;;;5031473;28;20501;-67
2021/11/23 06:01:47;;;;;;;19.50;17.60;;;1.30;99.90;;;;;;5031564;28;20491;-67
2021/11/23 06:04:13;;;;;;;18.07;16.37;;;1.90;99.90;;;;;;5023687;28;20522;-66
2021/11/23 06:06:40;;;;;;;15.47;13.90;;;2.60;99.90;;;;;;5022134;28;20453;-67
2021/11/23 06:09:08;;;;;;;12.90;11.57;;;2.70;99.90;;;;;;5016826;28;20504;-66
2021/11/23 06:11:35;;;;;;;12.63;11.53;;;2.60;99.90;;;;;;5016764;28;20480;-66
2021/11/23 06:14:02;;;;;;;13.30;10.90;;;2.90;99.90;;;;;;5016374;28;20461;-66
2021/11/23 06:16:31;;;;;;;10.70;9.70;;;3.10;99.90;;;;;;5016861;28;21002;-66
2021/11/23 06:18:57;;;;;;;11.37;10.40;;;3.10;99.90;;;;;;5017309;28;20485;-65
2021/11/23 06:21:26;;;;;;;11.93;10.93;;;3.10;99.90;;;;;;5015858;28;20818;-66
2021/11/23 06:23:54;;;;;;;11.93;10.83;;;3.10;99.90;;;;;;5016433;28;20484;-69
2021/11/23 06:26:34;;;;;;;11.83;10.73;;;3.00;99.90;;;;;;5093020;27;21055;-67
2021/11/23 06:29:01;;;;;;;10.73;9.83;;;3.00;99.90;;;;;;5106202;28;20438;-67
2021/11/23 06:31:27;;;;;;;12.43;11.33;;;2.90;99.90;;;;;;5101947;28;20468;-67
2021/11/23 06:33:55;;;;;;;12.57;11.27;;;2.80;99.90;;;;;;5093807;28;20540;-67
2021/11/23 06:36:21;;;;;;;12.07;10.93;;;2.60;99.90;;;;;;5107167;28;20442;-67
2021/11/23 06:38:50;;;;;;;14.47;13.10;;;2.40;99.90;;;;;;5114226;28;20437;-66
2021/11/23 06:41:17;;;;;;;12.70;11.40;;;2.30;99.90;;;;;;5092213;28;20466;-67
2021/11/23 06:43:45;;;;;;;14.07;12.67;;;2.10;99.90;;;;;;5092252;28;20487;-67
2021/11/23 06:46:12;;;;;;;14.80;13.20;;;1.90;99.90;;;;;;5093471;28;20478;-66
2021/11/23 06:48:39;;;;;;;14.03;12.63;;;1.70;99.90;;;;;;5093427;28;20453;-66
2021/11/23 06:51:06;;;;;;;13.40;12.10;;;1.70;99.90;;;;;;5092683;28;20519;-67
2021/11/23 06:53:32;;;;;;;14.37;12.97;;;1.60;99.90;;;;;;5102882;28;20478;-66
2021/11/23 06:55:59;;;;;;;14.00;12.70;;;1.60;99.90;;;;;;5104746;28;20451;-67
2021/11/23 06:58:26;;;;;;;13.40;12.20;;;1.50;99.90;;;;;;5093552;28;20453;-67
2021/11/23 07:00:54;;;;;;;14.33;12.93;;;1.50;99.90;;;;;;5092568;28;20469;-67
2021/11/23 07:03:21;;;;;;;13.30;12.10;;;1.50;99.90;;;;;;5092663;28;20519;-67
2021/11/23 07:05:47;;;;;;;14.17;12.80;;;1.50;99.90;;;;;;5092118;28;20548;-67
2021/11/23 07:08:14;;;;;;;14.07;12.60;;;1.50;99.90;;;;;;5092215;28;20454;-66
2021/11/23 07:10:42;;;;;;;14.40;13.00;;;1.50;99.90;;;;;;5092897;28;20503;-66
2021/11/23 07:13:09;;;;;;;15.00;13.60;;;1.50;99.90;;;;;;5092507;28;20941;-68
2021/11/23 07:15:36;;;;;;;15.20;13.80;;;1.60;99.90;;;;;;5093048;28;20450;-67
2021/11/23 07:18:04;;;;;;;13.70;12.43;;;1.80;99.90;;;;;;5095010;28;20920;-67
2021/11/23 07:20:30;;;;;;;13.57;12.37;;;2.20;99.90;;;;;;5094438;28;20477;-67
2021/11/23 07:22:57;;;;;;;11.80;10.80;;;2.80;99.90;;;;;;5093924;28;20450;-67
2021/11/23 07:25:24;;;;;;;11.97;10.90;;;3.50;99.90;;;;;;5092671;28;20481;-67
2021/11/23 07:27:51;;;;;;;11.93;9.60;;;4.30;99.90;;;;;;5092823;28;20507;-66
2021/11/23 07:30:18;;;;;;;9.63;8.77;;;5.10;99.90;;;;;;5099022;28;20464;-67
2021/11/23 07:32:44;;;;;;;9.40;8.60;;;5.80;99.90;;;;;;5106899;28;20507;-67
2021/11/23 07:35:12;;;;;;;9.23;8.40;;;6.70;99.90;;;;;;5108045;28;20514;-67
2021/11/23 07:37:41;;;;;;;9.43;8.67;;;7.30;99.90;;;;;;5087846;28;20451;-66
2021/11/23 07:40:09;;;;;;;9.43;8.43;;;8.00;99.90;;;;;;5082656;28;20842;-66
2021/11/23 07:42:36;;;;;;;9.80;8.90;;;8.50;99.90;;;;;;5079389;28;20450;-66
2021/11/23 07:45:04;;;;;;;9.60;8.90;;;8.80;99.90;;;;;;5079933;28;20482;-66
2021/11/23 07:47:31;;;;;;;9.90;9.10;;;9.00;99.90;;;;;;5080482;28;20944;-66
2021/11/23 07:49:58;;;;;;;9.53;8.83;;;9.30;99.90;;;;;;5080080;28;20446;-67
2021/11/23 07:52:26;;;;;;;9.53;8.90;;;9.90;99.90;;;;;;5079276;28;20474;-67
2021/11/23 07:54:53;;;;;;;8.87;8.27;;;9.80;99.90;;;;;;5079065;28;20782;-67
2021/11/23 07:57:20;;;;;;;8.90;8.20;;;10.20;99.90;;;;;;5080118;28;20450;-67
2021/11/23 07:59:47;;;;;;;9.20;8.60;;;10.60;98.20;;;;;;5080485;28;20893;-68
2021/11/23 08:02:13;;;;;;;10.40;9.57;;;11.50;97.80;;;;;;5081534;28;20517;-67
2021/11/23 08:04:40;;;;;;;9.23;8.50;;;11.80;95.00;;;;;;5080685;28;20851;-67
2021/11/23 08:07:07;;;;;;;9.20;8.60;;;12.90;94.70;;;;;;5081669;28;20458;-67
2021/11/23 08:09:35;;;;;;;10.03;9.33;;;13.50;91.10;;;;;;5087998;28;20838;-67
2021/11/23 08:12:03;;;;;;;9.77;9.07;;;14.20;89.20;;;;;;5089275;28;20472;-67
2021/11/23 08:14:29;;;;;;;10.43;9.70;;;13.90;85.60;;;;;;5081269;28;20455;-67
2021/11/23 08:16:57;;;;;;;10.10;9.30;;;13.10;84.80;;;;;;5081326;28;20450;-67
2021/11/23 08:19:23;;;;;;;9.93;9.20;;;12.30;87.40;;;;;;5081239;28;20545;-68
2021/11/23 08:21:51;;;;;;;11.43;9.30;;;12.80;87.20;;;;;;5080161;28;20481;-67
2021/11/23 08:24:17;;;;;;;10.07;9.17;;;12.90;86.50;;;;;;5079529;28;20463;-67
2021/11/23 08:26:46;;;;;;;10.83;10.03;;;13.30;86.40;;;;;;5077882;28;20475;-67
2021/11/23 08:29:12;;;;;;;10.60;9.53;;;13.70;84.70;;;;;;5078187;28;20459;-68
2021/11/23 08:31:39;;;;;;;10.27;9.57;;;13.70;81.20;;;;;;5077580;28;20484;-68
2021/11/23 08:34:06;;;;;;;10.10;9.30;;;14.00;82.10;;;;;;5077800;28;20503;-68
2021/11/23 08:36:34;;;;;;;9.60;8.70;;;14.50;78.60;;;;;;5077365;28;20449;-68
2021/11/23 08:39:01;;;;;;;10.70;9.90;;;14.20;78.90;;;;;;5077654;28;20460;-68
2021/11/23 08:41:28;;;;;;;9.60;8.70;;;13.90;77.10;;;;;;5078005;28;20478;-68
2021/11/23 08:43:56;;;;;;;11.93;10.60;;;14.00;76.80;;;;;;5078202;28;20449;-68
2021/11/23 08:46:23;;;;;;;10.43;9.53;;;13.90;79.30;;;;;;5098565;28;20479;-68
2021/11/23 08:48:50;;;;;;;12.50;10.50;;;13.70;77.90;;;;;;5097926;28;20434;-68
2021/11/23 08:51:19;;;;;;;10.03;9.33;;;13.30;78.20;;;;;;5082610;28;20475;-68
2021/11/23 08:53:46;;;;;;;11.00;10.10;;;14.10;79.40;;;;;;5079460;28;20541;-68
2021/11/23 08:56:14;;;;;;;11.27;10.33;;;14.20;76.80;;;;;;5078593;28;20956;-68
2021/11/23 08:58:42;;;;;;;12.23;11.10;;;13.70;75.70;;;;;;5097353;28;20432;-68
2021/11/23 09:01:10;;;;;;;12.60;11.33;;;13.10;77.80;;;;;;5098512;28;20494;-68
2021/11/23 09:03:39;;;;;;;10.67;9.73;;;11.30;80.60;;;;;;5098541;28;20456;-68
2021/11/23 09:06:06;;;;;;;11.13;10.00;;;10.40;84.70;;;;;;5098523;28;20466;-67
2021/11/23 09:08:33;;;;;;;11.10;10.10;;;9.50;90.00;;;;;;5096049;28;20434;-67
2021/11/23 09:11:00;;;;;;;11.93;10.67;;;8.90;92.00;;;;;;5097909;28;20526;-67
2021/11/23 09:13:27;;;;;;;13.90;11.23;;;8.30;93.60;;;;;;5098891;28;20456;-67
2021/11/23 09:15:53;;;;;;;10.03;9.13;;;7.50;96.70;;;;;;5098825;28;20430;-67
2021/11/23 09:18:21;;;;;;;10.63;9.73;;;7.10;98.90;;;;;;5097801;28;20431;-67
2021/11/23 09:20:48;;;;;;;10.60;9.70;;;6.80;99.90;;;;;;5095184;28;20497;-67
2021/11/23 09:23:15;;;;;;;11.43;10.43;;;6.50;99.90;;;;;;5085361;28;20454;-67
2021/11/23 09:25:44;;;;;;;10.33;9.40;;;6.80;99.90;;;;;;5089685;28;20485;-67
2021/11/23 09:28:11;;;;;;;11.23;10.20;;;7.30;99.90;;;;;;5085529;28;20446;-67
2021/11/23 09:30:39;;;;;;;10.23;9.23;;;8.00;99.90;;;;;;5079102;28;20574;-67
2021/11/23 09:33:07;;;;;;;12.03;9.17;;;9.00;99.60;;;;;;5079947;28;20457;-67
2021/11/23 09:35:35;;;;;;;9.27;8.47;;;9.80;97.20;;;;;;5086587;28;20518;-67
2021/11/23 09:38:02;;;;;;;9.43;8.73;;;10.90;94.40;;;;;;5085319;28;20807;-67
2021/11/23 09:40:31;;;;;;;9.67;8.87;;;11.50;92.50;;;;;;5077524;28;20446;-67
2021/11/23 09:42:58;;;;;;;9.30;8.67;;;12.00;91.50;;;;;;5086769;28;20470;-67
2021/11/23 09:45:26;;;;;;;8.73;8.13;;;12.50;89.50;;;;;;5084616;28;20832;-67
2021/11/23 09:47:53;;;;;;;8.40;7.90;;;13.20;87.90;;;;;;5078123;28;20456;-67
2021/11/23 09:50:21;;;;;;;9.30;8.50;;;14.30;82.90;;;;;;5077297;28;20482;-68
2021/11/23 09:52:49;;;;;;;8.80;8.20;;;14.10;78.20;;;;;;5077328;28;20446;-67
2021/11/23 09:55:17;;;;;;;9.40;8.70;;;13.30;79.30;;;;;;5077091;28;20454;-67
2021/11/23 09:57:44;;;;;;;8.63;8.07;;;12.00;82.20;;;;;;5076979;28;20987;-67
2021/11/23 10:00:26;;;;;;;10.10;9.30;;;10.80;86.50;;;;;;5077431;28;20477;-68
2021/11/23 10:02:53;;;;;;;11.13;9.03;;;10.20;89.40;;;;;;5077737;28;20785;-68
2021/11/23 10:05:21;;;;;;;11.80;9.00;;;9.70;92.20;;;;;;5077095;28;20522;-68
2021/11/23 10:07:49;;;;;;;9.03;8.23;;;9.60;93.70;;;;;;5076425;28;20454;-67
2021/11/23 10:10:19;;;;;;;8.50;7.70;;;9.60;94.20;;;;;;5079522;28;20486;-67
2021/11/23 10:12:54;;;;;;;9.60;8.80;;;10.20;93.70;;;;;;5086567;28;20435;-67
2021/11/23 10:15:24;;;;;;;9.83;9.00;;;10.80;92.70;;;;;;5086645;28;20448;-68
2021/11/23 10:17:52;;;;;;;9.13;8.43;;;11.10;91.00;;;;;;5083935;28;20438;-68
2021/11/23 10:20:30;;;;;;;8.10;7.50;;;12.30;90.80;;;;;;5076826;28;20455;-68
2021/11/23 10:23:09;;;;;;;7.10;6.50;;;13.40;85.30;;;;;;5077376;28;20466;-68
2021/11/23 10:25:36;;;;;;;7.57;7.07;;;14.60;82.00;;;;;;5076545;28;20458;-68
2021/11/23 10:28:04;;;;;;;7.90;7.37;;;15.50;78.00;;;;;;5076067;28;20462;-68
2021/11/23 10:30:30;;;;;;;8.63;7.47;;;16.20;74.80;;;;;;5076408;28;20450;-68
2021/11/23 10:32:57;;;;;;;7.83;7.33;;;16.60;72.40;;;;;;5075549;28;20458;-68
2021/11/23 10:35:26;;;;;;;8.03;7.43;;;16.70;71.30;;;;;;5075695;28;20938;-68
2021/11/23 10:37:54;;;;;;;11.00;7.70;;;16.30;69.10;;;;;;5075196;28;20462;-68
2021/11/23 10:40:24;;;;;;;8.17;7.47;;;16.00;71.10;;;;;;5075346;28;20464;-67
2021/11/23 10:42:53;;;;;;;8.20;7.60;;;14.80;73.30;;;;;;5075337;28;20970;-67
2021/11/23 10:45:21;;;;;;;7.80;7.17;;;14.10;73.80;;;;;;5075441;28;20453;-67
2021/11/23 10:47:48;;;;;;;7.93;7.43;;;13.10;74.80;;;;;;5075128;28;20520;-67
2021/11/23 10:50:17;;;;;;;6.90;6.40;;;12.40;78.70;;;;;;5075616;28;20451;-67
2021/11/23 10:52:47;;;;;;;7.43;6.83;;;12.10;80.10;;;;;;5076728;28;20477;-68
2021/11/23 10:55:31;;;;;;;8.10;7.50;;;11.20;82.90;;;;;;5075601;28;20438;-69
2021/11/23 10:58:00;;;;;;;8.17;7.50;;;10.10;86.20;;;;;;5075589;28;20563;-67
2021/11/23 11:00:30;;;;;;;8.20;7.27;;;9.90;90.10;;;;;;5074824;28;20457;-67
2021/11/23 11:03:00;;;;;;;7.00;6.40;;;9.30;91.50;;;;;;5075209;28;20458;-68
2021/11/23 11:05:28;;;;;;;7.40;6.87;;;8.90;93.10;;;;;;5080524;28;20466;-68
2021/11/23 11:07:57;;;;;;;6.50;6.10;;;8.70;95.00;;;;;;5085158;28;20474;-68
2021/11/23 11:10:24;;;;;;;7.27;6.70;;;8.50;94.60;;;;;;5075424;28;20465;-67
2021/11/23 11:12:52;;;;;;;6.80;6.30;;;8.50;95.20;;;;;;5079906;28;20450;-67
2021/11/23 11:15:25;;;;;;;7.67;6.83;;;8.10;96.70;;;;;;5083940;28;20466;-67
2021/11/23 11:17:52;;;;;;;6.70;6.27;;;8.20;97.10;;;;;;5079381;28;20442;-68
2021/11/23 11:20:34;;;;;;;7.10;6.50;;;8.20;97.40;;;;;;5078784;28;20465;-69
2021/11/23 11:23:05;;;;;;;7.53;6.90;;;8.10;98.00;;;;;;5079441;28;20441;-67
2021/11/23 11:25:51;;;;;;;7.10;6.50;;;7.90;98.40;;;;;;5080445;28;20587;-68
2021/11/23 11:28:36;;;;;;;7.00;6.40;;;7.90;99.10;;;;;;5082637;28;20454;-67
2021/11/23 11:31:07;;;;;;;6.60;6.10;;;7.70;98.60;;;;;;5078970;28;20903;-67
2021/11/23 11:33:34;;;;;;;6.27;5.87;;;7.60;99.80;;;;;;5078041;28;20859;-67
2021/11/23 11:36:02;;;;;;;6.57;6.07;;;7.50;99.80;;;;;;5083030;28;20447;-68
2021/11/23 11:38:40;;;;;;;7.03;6.53;;;7.50;99.90;;;;;;5089596;28;20504;-67
2021/11/23 11:41:29;;;;;;;6.80;6.30;;;7.50;99.90;;;;;;5084125;28;20528;-67
2021/11/23 11:44:10;;;;;;;6.53;5.90;;;7.50;99.90;;;;;;5082192;28;20990;-67
2021/11/23 11:46:36;;;;;;;6.13;5.53;;;7.50;99.90;;;;;;5078782;28;20553;-67
2021/11/23 11:49:03;;;;;;;7.00;6.50;;;7.30;99.90;;;;;;5078198;28;20477;-66
2021/11/23 11:51:34;;;;;;;10.20;6.00;;;7.30;99.90;;;;;;5078494;28;20475;-66
2021/11/23 11:54:03;;;;;;;7.33;6.63;;;7.30;99.90;;;;;;5079033;28;20446;-66
2021/11/23 11:56:45;;;;;;;6.60;6.10;;;7.40;99.90;;;;;;5078817;28;20446;-67
2021/11/23 11:59:35;;;;;;;6.53;5.90;;;7.40;99.90;;;;;;5079866;28;20897;-67
2021/11/23 12:02:07;;;;;;;6.07;5.67;;;7.40;99.90;;;;;;5078793;28;20477;-67
2021/11/23 12:04:58;;;;;;;5.70;5.20;;;7.50;99.90;;;;;;5081005;28;20820;-66
2021/11/23 12:07:37;;;;;;;5.70;5.30;;;7.60;99.90;;;;;;5078536;28;20474;-66
2021/11/23 12:10:18;;;;;;;6.00;5.50;;;7.60;99.90;;;;;;5078831;28;20438;-66
2021/11/23 12:13:00;;;;;;;5.80;5.40;;;7.60;99.90;;;;;;5078453;28;20435;-67
2021/11/23 12:15:52;;;;;;;5.33;4.70;;;7.60;99.40;;;;;;5079198;28;20443;-67
2021/11/23 12:18:46;;;;;;;5.63;5.17;;;7.50;99.90;;;;;;5080091;28;20431;-67
2021/11/23 12:21:16;;;;;;;5.23;4.87;;;7.60;99.90;;;;;;5080602;28;21063;-67
2021/11/23 12:23:50;;;;;;;5.57;5.17;;;7.70;99.90;;;;;;5080095;28;20516;-67
2021/11/23 12:26:19;;;;;;;6.00;5.40;;;7.80;99.90;;;;;;5079579;28;20555;-66
2021/11/23 12:28:53;;;;;;;5.87;5.23;;;8.00;99.90;;;;;;5079945;28;20504;-66
2021/11/23 12:31:21;;;;;;;5.17;4.77;;;8.10;99.70;;;;;;5078923;28;20474;-67
2021/11/23 12:33:51;;;;;;;4.63;4.30;;;8.10;98.60;;;;;;5078689;28;20455;-67
2021/11/23 12:36:21;;;;;;;5.10;4.10;;;8.20;98.60;;;;;;5078516;28;20454;-67
2021/11/23 12:38:49;;;;;;;4.30;4.00;;;8.30;99.00;;;;;;5079924;28;20503;-67
2021/11/23 12:41:19;;;;;;;4.73;4.20;;;8.40;99.40;;;;;;5078692;28;20477;-67
2021/11/23 12:43:47;;;;;;;4.27;3.60;;;8.50;98.40;;;;;;5078612;28;20451;-67
2021/11/23 12:46:18;;;;;;;4.00;3.70;;;8.40;97.20;;;;;;5085875;28;20494;-67
2021/11/23 12:48:49;;;;;;;3.17;2.97;;;8.40;96.50;;;;;;5079653;28;20488;-67
2021/11/23 12:51:25;;;;;;;3.47;3.27;;;8.40;95.90;;;;;;5077006;28;21036;-67
2021/11/23 12:53:55;;;;;;;2.77;2.67;;;8.30;96.70;;;;;;5077830;28;20439;-67
2021/11/23 12:56:23;;;;;;;2.60;2.50;;;8.30;95.50;;;;;;5076855;28;20538;-66
2021/11/23 12:58:49;;;;;;;2.60;2.50;;;8.10;94.50;;;;;;5076084;28;20454;-67
2021/11/23 13:01:24;;;;;;;2.83;2.60;;;8.10;93.80;;;;;;5075837;28;20880;-67
2021/11/23 13:03:57;;;;;;;3.23;3.03;;;8.00;94.40;;;;;;5076091;28;20472;-67
2021/11/23 13:06:24;;;;;;;2.83;2.70;;;8.10;94.70;;;;;;5075741;28;20498;-67
2021/11/23 13:08:58;;;;;;;3.10;2.87;;;8.20;94.40;;;;;;5077377;28;20504;-65
2021/11/23 13:11:25;;;;;;;2.93;2.73;;;8.20;93.70;;;;;;5075813;28;20527;-66
2021/11/23 13:13:52;;;;;;;2.40;2.30;;;8.20;93.10;;;;;;5076081;28;20451;-66
2021/11/23 13:16:19;;;;;;;2.73;2.53;;;8.20;92.00;;;;;;5075948;28;20451;-66
2021/11/23 13:18:50;;;;;;;2.50;2.37;;;8.20;92.40;;;;;;5076398;28;20458;-66
2021/11/23 13:21:18;;;;;;;2.20;2.10;;;8.30;92.60;;;;;;5075523;28;20478;-67
2021/11/23 13:23:50;;;;;;;2.50;2.40;;;8.20;92.30;;;;;;5075682;28;20813;-67
2021/11/23 13:26:20;;;;;;;2.63;2.53;;;8.30;92.50;;;;;;5074855;28;20458;-67
2021/11/23 13:29:00;;;;;;;2.80;2.70;;;8.40;93.20;;;;;;5075157;28;20476;-67
2021/11/23 13:31:29;;;;;;;2.83;2.73;;;8.50;93.30;;;;;;5075004;28;20474;-67
2021/11/23 13:33:57;;;;;;;2.83;2.63;;;8.40;93.30;;;;;;5074823;28;20454;-67
2021/11/23 13:36:29;;;;;;;2.90;2.80;;;8.40;93.20;;;;;;5075238;28;20450;-67
2021/11/23 13:39:08;;;;;;;3.13;2.93;;;8.30;91.90;;;;;;5090357;28;20427;-67
2021/11/23 13:41:37;;;;;;;3.10;2.90;;;8.20;92.20;;;;;;5075688;28;20528;-67
2021/11/23 13:44:05;;;;;;;3.07;2.87;;;8.10;92.50;;;;;;5074920;28;20500;-67
2021/11/23 13:46:41;;;;;;;3.83;3.53;;;8.10;92.40;;;;;;5074748;28;20451;-67
2021/11/23 13:49:10;;;;;;;3.00;2.77;;;8.20;93.10;;;;;;5074647;28;20454;-68
2021/11/23 13:51:39;;;;;;;2.90;2.70;;;8.20;92.40;;;;;;5075366;28;20478;-67
2021/11/23 13:54:08;;;;;;;3.00;2.80;;;8.30;92.70;;;;;;5074939;28;20815;-67
2021/11/23 13:56:37;;;;;;;4.30;2.50;;;8.30;93.20;;;;;;5074827;28;20454;-67
2021/11/23 13:59:06;;;;;;;3.10;2.83;;;8.40;93.60;;;;;;5075013;28;20457;-67
2021/11/23 14:01:48;;;;;;;3.20;3.00;;;8.40;92.70;;;;;;5075203;28;20471;-67
2021/11/23 14:04:18;;;;;;;2.90;2.70;;;8.40;93.10;;;;;;5075042;28;20439;-67
2021/11/23 14:07:12;;;;;;;3.30;3.10;;;8.40;92.30;;;;;;5075364;28;20788;-67
2021/11/23 14:10:10;;;;;;;5.03;4.63;;;8.50;93.30;;;;;;5075210;28;20443;-67
2021/11/23 14:12:44;;;;;;;4.60;4.10;;;8.40;95.20;;;;;;5079662;28;20475;-67
2021/11/23 14:15:16;;;;;;;4.63;4.33;;;8.50;96.20;;;;;;5090138;28;20442;-67
2021/11/23 14:18:08;;;;;;;5.30;4.83;;;8.50;96.70;;;;;;5076797;28;20434;-67
2021/11/23 14:20:52;;;;;;;4.60;4.30;;;8.60;97.90;;;;;;5077721;28;20477;-67
2021/11/23 14:23:24;;;;;;;4.90;4.60;;;8.60;97.80;;;;;;5074699;28;20439;-67
2021/11/23 14:26:06;;;;;;;6.57;5.30;;;8.80;97.80;;;;;;5074441;28;20458;-67
2021/11/23 14:28:34;;;;;;;4.40;4.10;;;8.70;97.30;;;;;;5075796;28;20462;-68
2021/11/23 14:31:01;;;;;;;5.87;4.67;;;8.80;97.60;;;;;;5076200;28;20470;-67
2021/11/23 14:33:27;;;;;;;4.07;3.80;;;8.70;97.60;;;;;;5077547;28;20447;-68
2021/11/23 14:35:56;;;;;;;3.80;3.50;;;8.70;96.70;;;;;;5084550;28;20461;-67
2021/11/23 14:38:25;;;;;;;3.77;3.53;;;8.70;96.30;;;;;;5086623;28;20447;-67
2021/11/23 14:40:52;;;;;;;4.63;4.23;;;8.70;96.50;;;;;;5084016;28;20536;-67
2021/11/23 14:43:19;;;;;;;4.80;4.20;;;8.60;96.50;;;;;;5075106;28;20814;-67
2021/11/23 14:45:46;;;;;;;4.57;4.20;;;8.50;97.60;;;;;;5074757;28;20504;-66
2021/11/23 14:48:13;;;;;;;4.20;3.80;;;8.50;97.80;;;;;;5078215;28;20477;-67
2021/11/23 14:50:41;;;;;;;5.37;4.83;;;8.30;97.80;;;;;;5090621;28;20524;-68
2021/11/23 14:53:08;;;;;;;5.17;4.80;;;8.20;98.30;;;;;;5091928;28;20454;-67
2021/11/23 14:55:36;;;;;;;4.60;4.20;;;8.20;98.70;;;;;;5078241;28;20455;-67
2021/11/23 14:58:03;;;;;;;7.40;5.03;;;8.10;98.90;;;;;;5078651;28;20490;-67
2021/11/23 15:00:31;;;;;;;5.00;4.70;;;8.00;99.50;;;;;;5084451;28;20459;-67
2021/11/23 15:02:58;;;;;;;4.83;4.43;;;7.90;99.70;;;;;;5089223;28;20430;-67
2021/11/23 15:05:25;;;;;;;7.30;4.20;;;7.90;99.90;;;;;;5088932;28;20476;-67
2021/11/23 15:07:51;;;;;;;5.87;3.50;;;7.80;99.60;;;;;;5078659;28;20574;-67
2021/11/23 15:10:21;;;;;;;3.43;3.03;;;7.60;98.50;;;;;;5078831;28;20462;-67
2021/11/23 15:12:50;;;;;;;6.27;3.50;;;7.50;98.30;;;;;;5078982;28;20488;-68
2021/11/23 15:15:18;;;;;;;4.13;3.70;;;7.30;98.10;;;;;;5078541;28;20454;-68
2021/11/23 15:17:46;;;;;;;3.80;3.50;;;7.20;98.40;;;;;;5079701;28;20454;-67
2021/11/23 15:20:13;;;;;;;3.43;3.23;;;7.20;98.60;;;;;;5079396;28;20528;-67
2021/11/23 15:22:40;;;;;;;3.90;3.60;;;7.10;98.40;;;;;;5079178;28;20450;-68
2021/11/23 15:25:08;;;;;;;4.17;3.87;;;7.00;98.60;;;;;;5078824;28;20489;-66
2021/11/23 15:27:34;;;;;;;6.30;4.27;;;6.90;98.90;;;;;;5078240;28;21027;-66
2021/11/23 15:30:03;;;;;;;3.63;3.43;;;6.70;99.10;;;;;;5092011;28;20426;-66
2021/11/23 15:32:29;;;;;;;3.33;3.03;;;6.60;99.30;;;;;;5100421;28;20501;-66
2021/11/23 15:34:56;;;;;;;4.37;4.07;;;6.60;99.80;;;;;;5100699;28;20481;-66
2021/11/23 15:37:23;;;;;;;2.70;2.60;;;6.50;99.90;;;;;;5100626;28;20460;-66
2021/11/23 15:39:50;;;;;;;3.57;3.27;;;6.40;99.90;;;;;;5100402;28;20447;-66
2021/11/23 15:42:16;;;;;;;3.10;2.70;;;6.30;99.90;;;;;;5099019;28;20522;-66
2021/11/23 15:44:43;;;;;;;3.27;2.97;;;6.20;99.90;;;;;;5100410;28;20433;-66
2021/11/23 15:47:19;;;;;;;3.20;2.80;;;6.20;99.90;;;;;;5100158;28;20442;-66
2021/11/23 15:49:45;;;;;;;4.53;2.90;;;6.10;99.90;;;;;;5099769;28;20434;-66
2021/11/23 15:52:12;;;;;;;2.73;2.63;;;6.00;99.90;;;;;;5099317;28;20471;-65
2021/11/23 15:54:39;;;;;;;3.87;3.03;;;6.00;99.90;;;;;;5093313;28;20442;-66
2021/11/23 15:57:06;;;;;;;2.53;2.30;;;5.90;99.90;;;;;;5080692;28;20455;-67
2021/11/23 15:59:32;;;;;;;3.77;3.47;;;5.90;99.90;;;;;;5080526;28;20455;-65
2021/11/23 16:01:59;;;;;;;3.00;2.77;;;5.90;99.90;;;;;;5080250;28;20479;-66
2021/11/23 16:04:27;;;;;;;4.50;3.33;;;5.80;99.90;;;;;;5080292;28;20447;-65
2021/11/23 16:06:54;;;;;;;3.97;3.63;;;5.80;99.90;;;;;;5079940;28;20451;-65
2021/11/23 16:09:20;;;;;;;6.40;4.43;;;5.70;99.90;;;;;;5079535;28;20478;-65
2021/11/23 16:11:47;;;;;;;3.73;2.90;;;5.70;99.90;;;;;;5079461;28;20479;-67
2021/11/23 16:14:14;;;;;;;2.93;2.73;;;5.60;99.90;;;;;;5078815;28;20454;-66
2021/11/23 16:16:40;;;;;;;4.17;3.50;;;5.60;99.90;;;;;;5077477;28;20508;-67
2021/11/23 16:19:07;;;;;;;4.97;3.00;;;5.50;99.90;;;;;;5077098;28;20937;-66
2021/11/23 16:21:35;;;;;;;3.70;3.30;;;5.50;99.90;;;;;;5080069;28;20969;-67
2021/11/23 16:24:02;;;;;;;6.77;4.10;;;5.40;99.90;;;;;;5087987;28;20512;-66
2021/11/23 16:26:28;;;;;;;4.90;3.77;;;5.40;99.90;;;;;;5076889;28;20462;-66
2021/11/23 16:28:58;;;;;;;4.43;3.43;;;5.40;99.90;;;;;;5076434;28;20507;-67
2021/11/23 16:31:25;;;;;;;4.53;3.60;;;5.30;99.90;;;;;;5076766;28;20466;-67
2021/11/23 16:33:52;;;;;;;5.27;3.87;;;5.30;99.90;;;;;;5076727;28;20459;-67
2021/11/23 16:36:19;;;;;;;7.17;3.53;;;5.20;99.90;;;;;;5076714;28;20455;-67
2021/11/23 16:38:47;;;;;;;4.73;4.23;;;5.10;99.90;;;;;;5076375;28;20454;-65
2021/11/23 16:41:14;;;;;;;4.80;3.63;;;5.10;99.90;;;;;;5076560;28;20478;-66
2021/11/23 16:43:41;;;;;;;4.30;4.00;;;5.00;99.90;;;;;;5076397;28;20455;-66
2021/11/23 16:46:10;;;;;;;4.50;4.10;;;5.00;99.90;;;;;;5076905;28;20447;-66
2021/11/23 16:48:37;;;;;;;4.60;4.20;;;4.90;99.90;;;;;;5077481;28;20470;-67
2021/11/23 16:51:04;;;;;;;4.60;4.20;;;4.80;99.90;;;;;;5078008;28;20919;-66
2021/11/23 16:53:30;;;;;;;9.23;4.90;;;4.80;99.90;;;;;;5076768;28;20500;-66
2021/11/23 16:56:00;;;;;;;5.30;4.90;;;4.70;99.90;;;;;;5077246;28;20454;-66
2021/11/23 16:58:27;;;;;;;5.70;4.70;;;4.70;99.90;;;;;;5075815;28;20949;-66
2021/11/23 17:00:56;;;;;;;6.20;4.40;;;4.60;99.90;;;;;;5075846;28;20866;-66
2021/11/23 17:03:26;;;;;;;5.37;4.87;;;4.60;99.90;;;;;;5076137;28;20837;-66
2021/11/23 17:05:53;;;;;;;5.40;4.57;;;4.60;99.90;;;;;;5078217;28;20435;-66
2021/11/23 17:08:20;;;;;;;5.40;4.03;;;4.50;99.90;;;;;;5076737;28;20482;-66
2021/11/23 17:10:46;;;;;;;9.40;5.23;;;4.50;99.90;;;;;;5077122;28;20497;-66
2021/11/23 17:13:15;;;;;;;4.70;4.30;;;4.50;99.90;;;;;;5083315;28;20454;-66
2021/11/23 17:15:41;;;;;;;8.40;4.20;;;4.40;99.90;;;;;;5082585;28;20450;-66
2021/11/23 17:18:08;;;;;;;5.53;5.03;;;4.40;99.90;;;;;;5076713;28;20482;-66
2021/11/23 17:20:35;;;;;;;10.20;4.97;;;4.40;99.90;;;;;;5075964;28;20450;-66
2021/11/23 17:23:05;;;;;;;7.60;6.13;;;4.40;99.90;;;;;;5081463;28;20450;-66
2021/11/23 17:25:33;;;;;;;13.40;8.70;;;4.40;99.90;;;;;;5097025;28;20463;-66
2021/11/23 17:27:59;;;;;;;5.67;5.07;;;4.40;99.90;;;;;;5084634;28;20471;-66
2021/11/23 17:30:28;;;;;;;11.53;5.57;;;4.40;99.90;;;;;;5076136;28;20938;-66
2021/11/23 17:32:54;;;;;;;4.97;4.57;;;4.40;99.90;;;;;;5075537;28;20820;-65
2021/11/23 17:35:21;;;;;;;7.30;5.97;;;4.40;99.90;;;;;;5075588;28;20520;-66
2021/11/23 17:37:48;;;;;;;6.33;5.63;;;4.40;99.90;;;;;;5075327;28;20942;-65
2021/11/23 17:40:15;;;;;;;7.50;6.67;;;4.40;99.90;;;;;;5080908;28;20447;-66
2021/11/23 17:42:41;;;;;;;9.17;6.50;;;4.30;99.90;;;;;;5076892;28;20454;-65
2021/11/23 17:45:09;;;;;;;6.20;5.60;;;4.30;99.90;;;;;;5075552;28;20933;-65
2021/11/23 17:47:39;;;;;;;9.67;6.00;;;4.30;99.90;;;;;;5075566;28;20461;-66
2021/11/23 17:50:08;;;;;;;6.37;4.53;;;4.30;99.90;;;;;;5076202;28;20496;-66
2021/11/23 17:52:35;;;;;;;5.10;4.60;;;4.30;99.90;;;;;;5075336;28;20475;-66
2021/11/23 17:55:03;;;;;;;4.50;4.13;;;4.30;99.90;;;;;;5075453;28;20812;-66
2021/11/23 17:57:31;;;;;;;6.47;5.13;;;4.30;99.90;;;;;;5075868;28;20455;-69
2021/11/23 17:59:59;;;;;;;5.43;4.93;;;4.30;99.90;;;;;;5075966;28;20454;-66